sensor_id;sensor_type;location;lat;lon;timestamp;pressure;altitude;pressure_sealevel;temperature;humidity
5753;BME280;2901;42.140;24.760;2023-01-29T00:02:01;99624.94;;;4.23;93.14
5753;BME280;2901;42.140;24.760;2023-01-29T00:04:27;99619.81;;;4.23;93.39
5753;BME280;2901;42.140;24.760;2023-01-29T00:06:53;99615.56;;;4.23;93.22
5753;BME280;2901;42.140;24.760;2023-01-29T00:09:18;99622.47;;;4.27;93.71
5753;BME280;2901;42.140;24.760;2023-01-29T00:11:44;99624.34;;;4.34;93.04
5753;BME280;2901;42.140;24.760;2023-01-29T00:14:09;99630.31;;;4.35;92.83
5753;BME280;2901;42.140;24.760;2023-01-29T00:16:35;99626.03;;;4.35;92.28
5753;BME280;2901;42.140;24.760;2023-01-29T00:19:00;99631.16;;;4.35;92.42
5753;BME280;2901;42.140;24.760;2023-01-29T00:21:26;99621.78;;;4.36;92.21
5753;BME280;2901;42.140;24.760;2023-01-29T00:23:53;99627.75;;;4.35;91.95
5753;BME280;2901;42.140;24.760;2023-01-29T00:26:19;99635.63;;;4.44;92.21
5753;BME280;2901;42.140;24.760;2023-01-29T00:28:45;99644.22;;;4.46;92.30
5753;BME280;2901;42.140;24.760;2023-01-29T00:31:13;99637.22;;;4.39;91.92
5753;BME280;2901;42.140;24.760;2023-01-29T00:33:39;99635.41;;;4.33;92.56
5753;BME280;2901;42.140;24.760;2023-01-29T00:36:06;99650.69;;;4.29;92.16
5753;BME280;2901;42.140;24.760;2023-01-29T00:38:33;99652.38;;;4.27;92.64
5753;BME280;2901;42.140;24.760;2023-01-29T00:41:09;99655.69;;;4.23;93.05
5753;BME280;2901;42.140;24.760;2023-01-29T00:43:54;99656.50;;;4.20;93.43
5753;BME280;2901;42.140;24.760;2023-01-29T00:46:38;99648.88;;;4.23;93.35
5753;BME280;2901;42.140;24.760;2023-01-29T00:49:04;99655.81;;;4.29;93.10
5753;BME280;2901;42.140;24.760;2023-01-29T00:51:30;99655.81;;;4.29;93.11
5753;BME280;2901;42.140;24.760;2023-01-29T00:53:55;99646.25;;;4.22;93.52
5753;BME280;2901;42.140;24.760;2023-01-29T00:56:24;99654.00;;;4.23;93.25
5753;BME280;2901;42.140;24.760;2023-01-29T00:58:49;99649.69;;;4.22;93.63
5753;BME280;2901;42.140;24.760;2023-01-29T01:01:15;99652.25;;;4.21;93.63
5753;BME280;2901;42.140;24.760;2023-01-29T01:03:40;99648.69;;;4.14;93.87
5753;BME280;2901;42.140;24.760;2023-01-29T01:06:09;99642.75;;;4.16;93.62
5753;BME280;2901;42.140;24.760;2023-01-29T01:08:34;99648.75;;;4.18;93.35
5753;BME280;2901;42.140;24.760;2023-01-29T01:11:18;99646.88;;;4.10;93.51
5753;BME280;2901;42.140;24.760;2023-01-29T01:13:44;99642.44;;;4.03;93.86
5753;BME280;2901;42.140;24.760;2023-01-29T01:16:11;99645.06;;;4.06;94.26
5753;BME280;2901;42.140;24.760;2023-01-29T01:18:37;99650.38;;;4.15;94.29
5753;BME280;2901;42.140;24.760;2023-01-29T01:21:03;99657.25;;;4.16;94.05
5753;BME280;2901;42.140;24.760;2023-01-29T01:23:28;99657.00;;;4.04;94.53
5753;BME280;2901;42.140;24.760;2023-01-29T01:25:54;99653.69;;;4.09;94.20
5753;BME280;2901;42.140;24.760;2023-01-29T01:28:19;99658.81;;;4.09;94.58
5753;BME280;2901;42.140;24.760;2023-01-29T01:30:45;99654.53;;;4.08;94.50
5753;BME280;2901;42.140;24.760;2023-01-29T01:33:11;99659.63;;;4.08;94.59
5753;BME280;2901;42.140;24.760;2023-01-29T01:35:37;99654.44;;;4.04;94.51
5753;BME280;2901;42.140;24.760;2023-01-29T01:38:03;99663.06;;;4.07;94.57
5753;BME280;2901;42.140;24.760;2023-01-29T01:40:28;99664.00;;;4.12;94.89
5753;BME280;2901;42.140;24.760;2023-01-29T01:42:56;99660.56;;;4.12;94.69
5753;BME280;2901;42.140;24.760;2023-01-29T01:45:26;99659.56;;;4.05;95.03
5753;BME280;2901;42.140;24.760;2023-01-29T01:48:16;99652.75;;;4.06;95.44
5753;BME280;2901;42.140;24.760;2023-01-29T01:50:52;99652.75;;;4.04;95.28
5753;BME280;2901;42.140;24.760;2023-01-29T01:53:27;99654.44;;;4.05;95.23
5753;BME280;2901;42.140;24.760;2023-01-29T01:55:57;99664.75;;;4.07;95.42
5753;BME280;2901;42.140;24.760;2023-01-29T01:58:41;99658.94;;;4.15;95.00
5753;BME280;2901;42.140;24.760;2023-01-29T02:01:08;99658.88;;;4.12;94.34
5753;BME280;2901;42.140;24.760;2023-01-29T02:03:53;99658.81;;;4.08;94.75
5753;BME280;2901;42.140;24.760;2023-01-29T02:06:39;99663.75;;;4.00;95.08
5753;BME280;2901;42.140;24.760;2023-01-29T02:09:34;99655.19;;;3.98;95.21
5753;BME280;2901;42.140;24.760;2023-01-29T02:12:21;99655.19;;;3.98;94.94
5753;BME280;2901;42.140;24.760;2023-01-29T02:14:47;99661.19;;;4.00;94.70
5753;BME280;2901;42.140;24.760;2023-01-29T02:17:14;99664.63;;;4.01;95.04
5753;BME280;2901;42.140;24.760;2023-01-29T02:25:02;99672.56;;;4.11;95.35
5753;BME280;2901;42.140;24.760;2023-01-29T02:30:40;99672.44;;;4.08;95.09
5753;BME280;2901;42.140;24.760;2023-01-29T02:33:30;99677.75;;;4.14;95.03
5753;BME280;2901;42.140;24.760;2023-01-29T02:36:23;99682.78;;;4.11;95.50
5753;BME280;2901;42.140;24.760;2023-01-29T02:39:00;99677.50;;;4.05;95.71
5753;BME280;2901;42.140;24.760;2023-01-29T02:41:36;99684.44;;;4.09;95.73
5753;BME280;2901;42.140;24.760;2023-01-29T02:47:29;99682.75;;;4.10;95.92
5753;BME280;2901;42.140;24.760;2023-01-29T02:52:25;99684.44;;;4.09;97.17
5753;BME280;2901;42.140;24.760;2023-01-29T02:55:11;99679.13;;;4.02;97.47
5753;BME280;2901;42.140;24.760;2023-01-29T02:57:40;99689.44;;;4.03;98.00
5753;BME280;2901;42.140;24.760;2023-01-29T03:00:12;99690.31;;;4.05;97.96
5753;BME280;2901;42.140;24.760;2023-01-29T03:02:47;99683.41;;;4.01;97.69
5753;BME280;2901;42.140;24.760;2023-01-29T03:05:22;99681.88;;;4.09;98.04
5753;BME280;2901;42.140;24.760;2023-01-29T03:07:55;99694.63;;;4.06;98.05
5753;BME280;2901;42.140;24.760;2023-01-29T03:13:14;99693.81;;;4.07;98.31
5753;BME280;2901;42.140;24.760;2023-01-29T03:15:56;99692.88;;;4.05;98.52
5753;BME280;2901;42.140;24.760;2023-01-29T03:18:28;99694.69;;;4.09;98.37
5753;BME280;2901;42.140;24.760;2023-01-29T03:21:00;99701.63;;;4.13;98.59
5753;BME280;2901;42.140;24.760;2023-01-29T03:23:30;99704.13;;;4.12;97.82
5753;BME280;2901;42.140;24.760;2023-01-29T03:26:17;99702.38;;;4.09;97.68
5753;BME280;2901;42.140;24.760;2023-01-29T03:29:03;99715.94;;;4.05;97.33
5753;BME280;2901;42.140;24.760;2023-01-29T03:31:50;99703.13;;;4.05;97.97
5753;BME280;2901;42.140;24.760;2023-01-29T03:34:39;99709.13;;;4.06;97.49
5753;BME280;2901;42.140;24.760;2023-01-29T03:37:19;99717.75;;;4.09;97.64
5753;BME280;2901;42.140;24.760;2023-01-29T03:39:46;99719.34;;;4.04;96.86
5753;BME280;2901;42.140;24.760;2023-01-29T03:42:32;99724.44;;;4.03;97.14
5753;BME280;2901;42.140;24.760;2023-01-29T03:45:20;99724.38;;;4.00;97.55
5753;BME280;2901;42.140;24.760;2023-01-29T03:55:42;99719.75;;;3.85;98.04
5753;BME280;2901;42.140;24.760;2023-01-29T03:58:24;99730.91;;;3.89;98.74
5753;BME280;2901;42.140;24.760;2023-01-29T04:00:56;99738.72;;;3.92;98.74
5753;BME280;2901;42.140;24.760;2023-01-29T04:03:48;99725.91;;;3.93;98.68
5753;BME280;2901;42.140;24.760;2023-01-29T04:06:19;99741.22;;;3.90;98.87
5753;BME280;2901;42.140;24.760;2023-01-29T04:09:01;99743.59;;;3.83;99.09
5753;BME280;2901;42.140;24.760;2023-01-29T04:11:28;99746.28;;;3.89;99.35
5753;BME280;2901;42.140;24.760;2023-01-29T04:13:55;99744.66;;;3.91;99.39
5753;BME280;2901;42.140;24.760;2023-01-29T04:16:28;99756.31;;;3.80;100.00
5753;BME280;2901;42.140;24.760;2023-01-29T04:18:55;99755.53;;;3.82;100.00
5753;BME280;2901;42.140;24.760;2023-01-29T04:21:21;99757.25;;;3.83;100.00
5753;BME280;2901;42.140;24.760;2023-01-29T04:23:47;99764.75;;;3.76;100.00
5753;BME280;2901;42.140;24.760;2023-01-29T04:31:13;99771.47;;;3.71;100.00
5753;BME280;2901;42.140;24.760;2023-01-29T04:36:40;99774.06;;;3.72;100.00
5753;BME280;2901;42.140;24.760;2023-01-29T04:39:24;99774.91;;;3.73;100.00
5753;BME280;2901;42.140;24.760;2023-01-29T04:44:56;99772.56;;;3.80;100.00
5753;BME280;2901;42.140;24.760;2023-01-29T04:50:39;99783.63;;;3.79;100.00
5753;BME280;2901;42.140;24.760;2023-01-29T04:53:16;99777.31;;;3.65;100.00
5753;BME280;2901;42.140;24.760;2023-01-29T04:55:48;99786.25;;;3.49;100.00
5753;BME280;2901;42.140;24.760;2023-01-29T04:58:30;99787.88;;;3.46;100.00
5753;BME280;2901;42.140;24.760;2023-01-29T05:00:57;99787.72;;;3.40;100.00
5753;BME280;2901;42.140;24.760;2023-01-29T05:03:25;99777.22;;;3.29;100.00
5753;BME280;2901;42.140;24.760;2023-01-29T05:05:54;99791.78;;;3.32;100.00
5753;BME280;2901;42.140;24.760;2023-01-29T05:08:23;99799.41;;;3.30;100.00
5753;BME280;2901;42.140;24.760;2023-01-29T05:10:51;99794.13;;;3.24;100.00
5753;BME280;2901;42.140;24.760;2023-01-29T05:13:19;99795.63;;;3.16;100.00
5753;BME280;2901;42.140;24.760;2023-01-29T05:18:23;99803.56;;;3.27;100.00
5753;BME280;2901;42.140;24.760;2023-01-29T05:20:48;99794.13;;;3.24;100.00
5753;BME280;2901;42.140;24.760;2023-01-29T05:23:19;99796.66;;;3.23;100.00
5753;BME280;2901;42.140;24.760;2023-01-29T05:25:46;99791.66;;;3.27;100.00
5753;BME280;2901;42.140;24.760;2023-01-29T05:28:11;99796.03;;;3.31;100.00
5753;BME280;2901;42.140;24.760;2023-01-29T05:30:47;99802.19;;;3.38;100.00
5753;BME280;2901;42.140;24.760;2023-01-29T05:33:20;99803.13;;;3.41;100.00
5753;BME280;2901;42.140;24.760;2023-01-29T05:35:46;99806.88;;;3.54;100.00
5753;BME280;2901;42.140;24.760;2023-01-29T05:38:13;99808.63;;;3.55;100.00
5753;BME280;2901;42.140;24.760;2023-01-29T05:40:38;99801.88;;;3.58;100.00
5753;BME280;2901;42.140;24.760;2023-01-29T05:43:04;99813.75;;;3.56;100.00
5753;BME280;2901;42.140;24.760;2023-01-29T05:45:31;99808.03;;;3.65;100.00
5753;BME280;2901;42.140;24.760;2023-01-29T05:47:58;99809.81;;;3.69;100.00
5753;BME280;2901;42.140;24.760;2023-01-29T05:50:24;99816.84;;;3.76;100.00
5753;BME280;2901;42.140;24.760;2023-01-29T05:53:00;99824.66;;;3.81;100.00
5753;BME280;2901;42.140;24.760;2023-01-29T05:55:26;99822.00;;;3.78;100.00
5753;BME280;2901;42.140;24.760;2023-01-29T05:57:53;99819.53;;;3.82;100.00
5753;BME280;2901;42.140;24.760;2023-01-29T06:00:19;99828.19;;;3.86;100.00
5753;BME280;2901;42.140;24.760;2023-01-29T06:02:44;99828.03;;;3.80;100.00
5753;BME280;2901;42.140;24.760;2023-01-29T06:05:10;99833.22;;;3.83;100.00
5753;BME280;2901;42.140;24.760;2023-01-29T06:07:35;99834.91;;;3.82;100.00
5753;BME280;2901;42.140;24.760;2023-01-29T06:10:02;99834.81;;;3.78;100.00
5753;BME280;2901;42.140;24.760;2023-01-29T06:12:27;99843.25;;;3.74;100.00
5753;BME280;2901;42.140;24.760;2023-01-29T06:14:53;99845.84;;;3.75;100.00
5753;BME280;2901;42.140;24.760;2023-01-29T06:17:18;99850.97;;;3.75;100.00
5753;BME280;2901;42.140;24.760;2023-01-29T06:19:43;99842.28;;;3.70;100.00
5753;BME280;2901;42.140;24.760;2023-01-29T06:22:09;99845.00;;;3.76;100.00
5753;BME280;2901;42.140;24.760;2023-01-29T06:24:34;99850.91;;;3.72;100.00
5753;BME280;2901;42.140;24.760;2023-01-29T06:27:00;99856.84;;;3.71;100.00
5753;BME280;2901;42.140;24.760;2023-01-29T06:29:25;99850.19;;;3.78;100.00
5753;BME280;2901;42.140;24.760;2023-01-29T06:31:50;99860.72;;;3.88;100.00
5753;BME280;2901;42.140;24.760;2023-01-29T06:34:16;99854.56;;;3.82;100.00
5753;BME280;2901;42.140;24.760;2023-01-29T06:36:41;99869.88;;;3.80;100.00
5753;BME280;2901;42.140;24.760;2023-01-29T06:39:07;99872.59;;;3.86;100.00
5753;BME280;2901;42.140;24.760;2023-01-29T06:41:33;99859.84;;;3.88;100.00
5753;BME280;2901;42.140;24.760;2023-01-29T06:43:58;99873.63;;;3.93;100.00
5753;BME280;2901;42.140;24.760;2023-01-29T06:46:24;99872.22;;;4.04;100.00
5753;BME280;2901;42.140;24.760;2023-01-29T06:48:49;99875.72;;;4.07;100.00
5753;BME280;2901;42.140;24.760;2023-01-29T06:51:14;99871.69;;;4.17;100.00
5753;BME280;2901;42.140;24.760;2023-01-29T06:53:40;99880.25;;;4.17;100.00
5753;BME280;2901;42.140;24.760;2023-01-29T06:56:06;99875.88;;;4.15;100.00
5753;BME280;2901;42.140;24.760;2023-01-29T06:58:32;99872.50;;;4.16;100.00
5753;BME280;2901;42.140;24.760;2023-01-29T07:01:08;99883.91;;;4.27;100.00
5753;BME280;2901;42.140;24.760;2023-01-29T07:03:34;99877.91;;;4.28;100.00
5753;BME280;2901;42.140;24.760;2023-01-29T07:06:00;99894.00;;;4.21;100.00
5753;BME280;2901;42.140;24.760;2023-01-29T07:08:25;99883.69;;;4.19;100.00
5753;BME280;2901;42.140;24.760;2023-01-29T07:10:51;99894.38;;;4.36;100.00
5753;BME280;2901;42.140;24.760;2023-01-29T07:13:17;99895.25;;;4.37;100.00
5753;BME280;2901;42.140;24.760;2023-01-29T07:15:42;99903.16;;;4.46;100.00
5753;BME280;2901;42.140;24.760;2023-01-29T07:18:08;99898.34;;;4.59;100.00
5753;BME280;2901;42.140;24.760;2023-01-29T07:20:41;99889.06;;;4.64;100.00
5753;BME280;2901;42.140;24.760;2023-01-29T07:23:11;99898.69;;;4.73;100.00
5753;BME280;2901;42.140;24.760;2023-01-29T07:25:37;99898.47;;;4.64;100.00
5753;BME280;2901;42.140;24.760;2023-01-29T07:28:03;99905.25;;;4.62;100.00
5753;BME280;2901;42.140;24.760;2023-01-29T07:30:28;99899.09;;;4.55;100.00
5753;BME280;2901;42.140;24.760;2023-01-29T07:32:54;99905.03;;;4.53;100.00
5753;BME280;2901;42.140;24.760;2023-01-29T07:35:20;99896.13;;;4.39;100.00
5753;BME280;2901;42.140;24.760;2023-01-29T07:37:49;99891.25;;;4.48;100.00
5753;BME280;2901;42.140;24.760;2023-01-29T07:40:14;99904.09;;;4.49;100.00
5753;BME280;2901;42.140;24.760;2023-01-29T07:42:40;99907.78;;;4.60;100.00
5753;BME280;2901;42.140;24.760;2023-01-29T07:45:09;99883.84;;;4.61;100.00
5753;BME280;2901;42.140;24.760;2023-01-29T07:47:35;99905.50;;;4.72;99.97
5753;BME280;2901;42.140;24.760;2023-01-29T07:50:00;99905.16;;;4.57;99.68
5753;BME280;2901;42.140;24.760;2023-01-29T07:52:28;99899.16;;;4.57;100.00
5753;BME280;2901;42.140;24.760;2023-01-29T07:54:54;99916.19;;;4.55;100.00
5753;BME280;2901;42.140;24.760;2023-01-29T07:57:19;99910.28;;;4.57;100.00
5753;BME280;2901;42.140;24.760;2023-01-29T07:59:44;99912.13;;;4.64;100.00
5753;BME280;2901;42.140;24.760;2023-01-29T08:02:10;99923.50;;;4.74;100.00
5753;BME280;2901;42.140;24.760;2023-01-29T08:04:35;99909.00;;;4.76;100.00
5753;BME280;2901;42.140;24.760;2023-01-29T08:07:00;99916.84;;;4.82;100.00
5753;BME280;2901;42.140;24.760;2023-01-29T08:09:28;99915.16;;;4.83;100.00
5753;BME280;2901;42.140;24.760;2023-01-29T08:11:54;99922.66;;;4.75;100.00
5753;BME280;2901;42.140;24.760;2023-01-29T08:14:19;99926.28;;;4.85;100.00
5753;BME280;2901;42.140;24.760;2023-01-29T08:16:44;99925.16;;;4.72;100.00
5753;BME280;2901;42.140;24.760;2023-01-29T08:19:10;99916.38;;;4.62;100.00
5753;BME280;2901;42.140;24.760;2023-01-29T08:21:35;99920.94;;;4.74;100.00
5753;BME280;2901;42.140;24.760;2023-01-29T08:24:00;99926.28;;;4.85;100.00
5753;BME280;2901;42.140;24.760;2023-01-29T08:26:26;99928.28;;;4.96;100.00
5753;BME280;2901;42.140;24.760;2023-01-29T08:28:52;99927.31;;;4.91;100.00
5753;BME280;2901;42.140;24.760;2023-01-29T08:31:18;99931.06;;;5.05;100.00
5753;BME280;2901;42.140;24.760;2023-01-29T08:33:47;99930.75;;;5.29;100.00
5753;BME280;2901;42.140;24.760;2023-01-29T08:36:12;99924.03;;;5.36;100.00
5753;BME280;2901;42.140;24.760;2023-01-29T08:38:38;99930.50;;;5.18;100.00
5753;BME280;2901;42.140;24.760;2023-01-29T08:41:04;99935.75;;;5.23;100.00
5753;BME280;2901;42.140;24.760;2023-01-29T08:43:29;99939.13;;;5.22;100.00
5753;BME280;2901;42.140;24.760;2023-01-29T08:45:55;99946.84;;;5.22;100.00
5753;BME280;2901;42.140;24.760;2023-01-29T08:48:20;99940.19;;;5.32;100.00
5753;BME280;2901;42.140;24.760;2023-01-29T08:50:46;99950.66;;;5.41;100.00
5753;BME280;2901;42.140;24.760;2023-01-29T08:53:11;99939.59;;;5.43;100.00
5753;BME280;2901;42.140;24.760;2023-01-29T08:55:38;99946.31;;;5.37;100.00
5753;BME280;2901;42.140;24.760;2023-01-29T08:58:05;99946.06;;;5.26;100.00
5753;BME280;2901;42.140;24.760;2023-01-29T09:00:31;99940.88;;;5.23;100.00
5753;BME280;2901;42.140;24.760;2023-01-29T09:02:57;99944.34;;;5.25;100.00
5753;BME280;2901;42.140;24.760;2023-01-29T09:05:24;99941.38;;;5.07;100.00
5753;BME280;2901;42.140;24.760;2023-01-29T09:07:49;99942.53;;;5.21;100.00
5753;BME280;2901;42.140;24.760;2023-01-29T09:10:15;99939.38;;;5.33;100.00
5753;BME280;2901;42.140;24.760;2023-01-29T09:12:40;99944.56;;;5.36;100.00
5753;BME280;2901;42.140;24.760;2023-01-29T09:15:06;99944.81;;;5.46;100.00
5753;BME280;2901;42.140;24.760;2023-01-29T09:17:32;99935.47;;;5.51;100.00
5753;BME280;2901;42.140;24.760;2023-01-29T09:19:57;99935.75;;;5.65;100.00
5753;BME280;2901;42.140;24.760;2023-01-29T09:22:23;99939.97;;;5.61;100.00
5753;BME280;2901;42.140;24.760;2023-01-29T09:24:48;99931.91;;;5.45;100.00
5753;BME280;2901;42.140;24.760;2023-01-29T09:27:14;99933.94;;;5.59;100.00
5753;BME280;2901;42.140;24.760;2023-01-29T09:29:39;99935.00;;;5.69;100.00
5753;BME280;2901;42.140;24.760;2023-01-29T09:32:05;99942.31;;;5.91;100.00
5753;BME280;2901;42.140;24.760;2023-01-29T09:34:30;99917.38;;;5.87;100.00
5753;BME280;2901;42.140;24.760;2023-01-29T09:36:56;99936.19;;;5.86;100.00
5753;BME280;2901;42.140;24.760;2023-01-29T09:39:21;99936.97;;;5.84;100.00
5753;BME280;2901;42.140;24.760;2023-01-29T09:47:23;99927.81;;;5.53;100.00
5753;BME280;2901;42.140;24.760;2023-01-29T09:49:59;99925.03;;;5.42;100.00
5753;BME280;2901;42.140;24.760;2023-01-29T09:52:29;99920.78;;;5.44;100.00
5753;BME280;2901;42.140;24.760;2023-01-29T09:55:24;99920.66;;;5.38;100.00
5753;BME280;2901;42.140;24.760;2023-01-29T09:57:58;99909.44;;;5.35;100.00
5753;BME280;2901;42.140;24.760;2023-01-29T10:00:37;99918.38;;;5.52;100.00
5753;BME280;2901;42.140;24.760;2023-01-29T10:26:59;99895.59;;;6.13;98.33
5753;BME280;2901;42.140;24.760;2023-01-29T10:29:26;99894.19;;;6.31;97.23
5753;BME280;2901;42.140;24.760;2023-01-29T10:31:57;99888.03;;;6.21;96.20
5753;BME280;2901;42.140;24.760;2023-01-29T10:36:56;99882.25;;;6.34;96.38
5753;BME280;2901;42.140;24.760;2023-01-29T10:39:23;99879.72;;;6.37;95.40
5753;BME280;2901;42.140;24.760;2023-01-29T10:44:49;99863.69;;;6.53;94.37
5753;BME280;2901;42.140;24.760;2023-01-29T10:58:29;99855.63;;;6.89;92.09
5753;BME280;2901;42.140;24.760;2023-01-29T11:00:55;99851.34;;;6.90;92.59
5753;BME280;2901;42.140;24.760;2023-01-29T11:03:23;99841.84;;;6.86;91.92
5753;BME280;2901;42.140;24.760;2023-01-29T11:06:01;99840.19;;;6.89;91.95
5753;BME280;2901;42.140;24.760;2023-01-29T11:11:19;99841.13;;;6.94;90.83
5753;BME280;2901;42.140;24.760;2023-01-29T11:13:59;99842.00;;;6.96;90.73
5753;BME280;2901;42.140;24.760;2023-01-29T11:16:28;99839.53;;;7.05;91.12
5753;BME280;2901;42.140;24.760;2023-01-29T11:18:56;99840.53;;;7.13;90.36
5753;BME280;2901;42.140;24.760;2023-01-29T11:21:23;99838.84;;;7.18;89.79
5753;BME280;2901;42.140;24.760;2023-01-29T11:23:49;99832.88;;;7.19;89.92
5753;BME280;2901;42.140;24.760;2023-01-29T11:26:19;99833.66;;;7.15;89.32
5753;BME280;2901;42.140;24.760;2023-01-29T11:28:49;99824.09;;;7.04;89.72
5753;BME280;2901;42.140;24.760;2023-01-29T11:31:38;99818.91;;;7.02;90.04
5753;BME280;2901;42.140;24.760;2023-01-29T11:34:20;99823.16;;;6.99;90.38
5753;BME280;2901;42.140;24.760;2023-01-29T11:36:56;99816.41;;;7.08;90.09
5753;BME280;2901;42.140;24.760;2023-01-29T11:39:25;99814.91;;;7.24;89.04
5753;BME280;2901;42.140;24.760;2023-01-29T11:44:26;99810.03;;;7.51;87.35
5753;BME280;2901;42.140;24.760;2023-01-29T11:46:52;99804.34;;;7.81;86.83
5753;BME280;2901;42.140;24.760;2023-01-29T11:49:24;99798.38;;;7.83;84.86
5753;BME280;2901;42.140;24.760;2023-01-29T11:51:53;99795.00;;;7.92;84.76
5753;BME280;2901;42.140;24.760;2023-01-29T11:54:28;99801.97;;;8.02;83.86
5753;BME280;2901;42.140;24.760;2023-01-29T11:56:55;99792.38;;;7.88;84.27
5753;BME280;2901;42.140;24.760;2023-01-29T11:59:41;99795.72;;;7.76;84.18
5753;BME280;2901;42.140;24.760;2023-01-29T12:02:32;99798.28;;;7.76;84.35
5753;BME280;2901;42.140;24.760;2023-01-29T12:05:03;99793.78;;;7.55;84.34
5753;BME280;2901;42.140;24.760;2023-01-29T12:07:30;99793.03;;;7.64;85.34
5753;BME280;2901;42.140;24.760;2023-01-29T12:09:57;99789.59;;;7.68;84.47
5753;BME280;2901;42.140;24.760;2023-01-29T12:12:29;99786.94;;;7.59;84.42
5753;BME280;2901;42.140;24.760;2023-01-29T12:15:04;99788.56;;;7.49;84.59
5753;BME280;2901;42.140;24.760;2023-01-29T12:17:32;99780.81;;;7.48;84.38
5753;BME280;2901;42.140;24.760;2023-01-29T12:20:10;99782.56;;;7.50;85.10
5753;BME280;2901;42.140;24.760;2023-01-29T12:22:50;99771.28;;;7.39;85.10
5753;BME280;2901;42.140;24.760;2023-01-29T12:28:17;99774.13;;;7.68;84.55
5753;BME280;2901;42.140;24.760;2023-01-29T12:33:50;99765.41;;;7.51;82.76
5753;BME280;2901;42.140;24.760;2023-01-29T12:36:23;99766.28;;;7.56;84.03
5753;BME280;2901;42.140;24.760;2023-01-29T12:38:49;99763.78;;;7.62;82.79
5753;BME280;2901;42.140;24.760;2023-01-29T12:41:30;99758.63;;;7.60;82.92
5753;BME280;2901;42.140;24.760;2023-01-29T12:44:04;99749.16;;;7.61;83.19
5753;BME280;2901;42.140;24.760;2023-01-29T12:46:36;99757.78;;;7.63;83.05
5753;BME280;2901;42.140;24.760;2023-01-29T12:49:09;99763.75;;;7.59;83.11
5753;BME280;2901;42.140;24.760;2023-01-29T12:51:41;99761.16;;;7.56;83.00
5753;BME280;2901;42.140;24.760;2023-01-29T12:54:17;99762.88;;;7.58;83.87
5753;BME280;2901;42.140;24.760;2023-01-29T12:56:47;99764.59;;;7.58;83.36
5753;BME280;2901;42.140;24.760;2023-01-29T12:59:44;99768.88;;;7.56;82.45
5753;BME280;2901;42.140;24.760;2023-01-29T13:05:03;99773.84;;;7.39;83.38
5753;BME280;2901;42.140;24.760;2023-01-29T13:07:36;99769.53;;;7.38;83.18
5753;BME280;2901;42.140;24.760;2023-01-29T13:10:11;99767.75;;;7.29;83.22
5753;BME280;2901;42.140;24.760;2023-01-29T13:12:47;99768.66;;;7.38;83.86
5753;BME280;2901;42.140;24.760;2023-01-29T13:15:21;99767.84;;;7.37;82.71
5753;BME280;2901;42.140;24.760;2023-01-29T13:17:52;99766.16;;;7.41;81.97
5753;BME280;2901;42.140;24.760;2023-01-29T13:20:38;99766.97;;;7.38;81.35
5753;BME280;2901;42.140;24.760;2023-01-29T13:23:16;99767.06;;;7.44;81.92
5753;BME280;2901;42.140;24.760;2023-01-29T13:25:43;99763.59;;;7.44;82.00
5753;BME280;2901;42.140;24.760;2023-01-29T13:28:19;99764.34;;;7.35;81.34
5753;BME280;2901;42.140;24.760;2023-01-29T13:30:46;99770.47;;;7.45;80.99
5753;BME280;2901;42.140;24.760;2023-01-29T13:33:19;99760.06;;;7.36;81.55
5753;BME280;2901;42.140;24.760;2023-01-29T13:35:47;99764.31;;;7.32;80.28
5753;BME280;2901;42.140;24.760;2023-01-29T13:38:31;99760.81;;;7.25;80.58
5753;BME280;2901;42.140;24.760;2023-01-29T13:41:01;99766.16;;;7.41;80.15
5753;BME280;2901;42.140;24.760;2023-01-29T13:43:34;99760.13;;;7.42;80.19
5753;BME280;2901;42.140;24.760;2023-01-29T13:46:07;99769.50;;;7.35;80.43
5753;BME280;2901;42.140;24.760;2023-01-29T13:48:41;99769.50;;;7.35;79.42
5753;BME280;2901;42.140;24.760;2023-01-29T13:51:10;99759.97;;;7.26;79.50
5753;BME280;2901;42.140;24.760;2023-01-29T13:53:40;99761.66;;;7.24;80.33
5753;BME280;2901;42.140;24.760;2023-01-29T13:59:03;99776.28;;;7.25;80.17
5753;BME280;2901;42.140;24.760;2023-01-29T14:06:58;99777.97;;;7.23;79.75
5753;BME280;2901;42.140;24.760;2023-01-29T14:11:58;99769.41;;;7.26;79.68
5753;BME280;2901;42.140;24.760;2023-01-29T14:15:17;99771.13;;;7.25;79.68
5753;BME280;2901;42.140;24.760;2023-01-29T14:17:34;99765.13;;;7.26;80.52
5753;BME280;2901;42.140;24.760;2023-01-29T14:20:29;99766.88;;;7.29;80.66
5753;BME280;2901;42.140;24.760;2023-01-29T14:22:56;99766.97;;;7.37;80.20
5753;BME280;2901;42.140;24.760;2023-01-29T14:25:28;99769.56;;;7.40;80.07
5753;BME280;2901;42.140;24.760;2023-01-29T14:27:56;99769.53;;;7.38;79.82
5753;BME280;2901;42.140;24.760;2023-01-29T14:30:23;99778.97;;;7.38;79.35
5753;BME280;2901;42.140;24.760;2023-01-29T14:32:50;99786.56;;;7.24;79.70
5753;BME280;2901;42.140;24.760;2023-01-29T14:37:48;99789.06;;;7.16;79.33
5753;BME280;2901;42.140;24.760;2023-01-29T14:43:04;99793.13;;;6.99;78.18
5753;BME280;2901;42.140;24.760;2023-01-29T15:00:52;99793.84;;;6.88;82.71
5753;BME280;2901;42.140;24.760;2023-01-29T15:03:25;99792.00;;;6.79;83.37
5753;BME280;2901;42.140;24.760;2023-01-29T15:05:54;99801.53;;;6.86;83.48
5753;BME280;2901;42.140;24.760;2023-01-29T15:08:26;99798.97;;;6.86;84.17
5753;BME280;2901;42.140;24.760;2023-01-29T15:10:56;99804.03;;;6.80;84.72
5753;BME280;2901;42.140;24.760;2023-01-29T15:16:23;99803.88;;;6.68;85.93
5753;BME280;2901;42.140;24.760;2023-01-29T15:18:54;99808.19;;;6.70;85.22
5753;BME280;2901;42.140;24.760;2023-01-29T15:21:21;99806.34;;;6.60;85.47
5753;BME280;2901;42.140;24.760;2023-01-29T15:23:46;99808.84;;;6.56;86.78
5753;BME280;2901;42.140;24.760;2023-01-29T15:26:21;99810.53;;;6.55;86.73
5753;BME280;2901;42.140;24.760;2023-01-29T15:28:54;99816.50;;;6.53;86.47
5753;BME280;2901;42.140;24.760;2023-01-29T15:31:20;99818.19;;;6.51;86.83
5753;BME280;2901;42.140;24.760;2023-01-29T15:33:47;99821.66;;;6.51;87.13
5753;BME280;2901;42.140;24.760;2023-01-29T15:36:19;99827.53;;;6.46;87.68
5753;BME280;2901;42.140;24.760;2023-01-29T15:38:45;99820.53;;;6.36;87.75
5753;BME280;2901;42.140;24.760;2023-01-29T15:41:15;99830.03;;;6.38;87.86
5753;BME280;2901;42.140;24.760;2023-01-29T15:43:47;99815.25;;;6.26;88.52
5753;BME280;2901;42.140;24.760;2023-01-29T15:46:20;99823.22;;;6.43;88.07
5753;BME280;2901;42.140;24.760;2023-01-29T15:48:48;99831.81;;;6.44;88.08
5753;BME280;2901;42.140;24.760;2023-01-29T15:51:17;99833.38;;;6.36;88.42